sensor_id;sensor_type;location;lat;lon;timestamp;pressure;altitude;pressure_sealevel;temperature;humidity
1472;BME280;963;42.644;23.336;2023-12-29T00:00:25;94816.25;;;6.64;65.62
1472;BME280;963;42.644;23.336;2023-12-29T00:02:51;94844.22;;;6.72;65.67
1472;BME280;963;42.644;23.336;2023-12-29T00:05:17;94840.66;;;6.76;65.70
1472;BME280;963;42.644;23.336;2023-12-29T00:07:42;94827.53;;;6.85;65.08
1472;BME280;963;42.644;23.336;2023-12-29T00:10:08;94821.00;;;6.70;64.91
1472;BME280;963;42.644;23.336;2023-12-29T00:12:33;94828.09;;;6.70;65.74
1472;BME280;963;42.644;23.336;2023-12-29T00:14:59;94860.50;;;6.69;65.99
1472;BME280;963;42.644;23.336;2023-12-29T00:17:24;94839.94;;;6.58;66.04
1472;BME280;963;42.644;23.336;2023-12-29T00:19:50;94831.66;;;6.56;66.13
1472;BME280;963;42.644;23.336;2023-12-29T00:22:15;94830.75;;;6.52;66.30
1472;BME280;963;42.644;23.336;2023-12-29T00:24:41;94857.66;;;6.53;66.31
1472;BME280;963;42.644;23.336;2023-12-29T00:27:06;94831.25;;;6.46;66.65
1472;BME280;963;42.644;23.336;2023-12-29T00:29:31;94830.66;;;6.40;66.77
1472;BME280;963;42.644;23.336;2023-12-29T00:32:00;94853.09;;;6.33;67.10
1472;BME280;963;42.644;23.336;2023-12-29T00:34:26;94823.19;;;6.13;66.56
1472;BME280;963;42.644;23.336;2023-12-29T00:36:51;94851.59;;;6.14;67.54
1472;BME280;963;42.644;23.336;2023-12-29T00:39:16;94830.56;;;6.11;68.57
1472;BME280;963;42.644;23.336;2023-12-29T00:41:42;94843.16;;;6.09;68.61
1472;BME280;963;42.644;23.336;2023-12-29T00:44:07;94828.25;;;6.09;69.27
1472;BME280;963;42.644;23.336;2023-12-29T00:46:33;94821.03;;;6.15;69.06
1472;BME280;963;42.644;23.336;2023-12-29T00:48:59;94819.16;;;6.24;69.13
1472;BME280;963;42.644;23.336;2023-12-29T00:51:24;94804.91;;;6.13;67.76
1472;BME280;963;42.644;23.336;2023-12-29T00:53:49;94817.00;;;6.26;68.28
1472;BME280;963;42.644;23.336;2023-12-29T00:56:15;94804.09;;;6.21;68.97
1472;BME280;963;42.644;23.336;2023-12-29T00:58:40;94803.09;;;6.05;69.78
1472;BME280;963;42.644;23.336;2023-12-29T01:01:07;94802.56;;;6.20;69.17
1472;BME280;963;42.644;23.336;2023-12-29T01:03:37;94800.88;;;6.24;68.36
1472;BME280;963;42.644;23.336;2023-12-29T01:06:02;94820.06;;;6.28;67.82
1472;BME280;963;42.644;23.336;2023-12-29T01:08:28;94803.00;;;6.31;67.84
1472;BME280;963;42.644;23.336;2023-12-29T01:10:53;94809.91;;;6.35;67.39
1472;BME280;963;42.644;23.336;2023-12-29T01:13:19;94812.09;;;6.16;68.14
1472;BME280;963;42.644;23.336;2023-12-29T01:15:44;94817.34;;;6.16;68.31
1472;BME280;963;42.644;23.336;2023-12-29T01:18:11;94802.59;;;6.11;68.40
1472;BME280;963;42.644;23.336;2023-12-29T01:20:37;94796.00;;;6.14;69.54
1472;BME280;963;42.644;23.336;2023-12-29T01:23:04;94838.22;;;6.16;68.70
1472;BME280;963;42.644;23.336;2023-12-29T01:25:29;94805.47;;;6.27;68.85
1472;BME280;963;42.644;23.336;2023-12-29T01:27:55;94806.25;;;6.19;68.30
1472;BME280;963;42.644;23.336;2023-12-29T01:30:20;94814.84;;;6.28;68.31
1472;BME280;963;42.644;23.336;2023-12-29T01:32:45;94806.41;;;6.22;68.52
1472;BME280;963;42.644;23.336;2023-12-29T01:35:11;94806.88;;;6.16;68.52
1472;BME280;963;42.644;23.336;2023-12-29T01:37:36;94812.09;;;6.16;68.35
1472;BME280;963;42.644;23.336;2023-12-29T01:40:02;94821.78;;;6.15;68.30
1472;BME280;963;42.644;23.336;2023-12-29T01:42:27;94813.97;;;6.07;67.56
1472;BME280;963;42.644;23.336;2023-12-29T01:44:53;94811.53;;;6.02;67.43
1472;BME280;963;42.644;23.336;2023-12-29T01:47:20;94830.13;;;5.91;68.42
1472;BME280;963;42.644;23.336;2023-12-29T01:49:46;94819.81;;;5.86;69.15
1472;BME280;963;42.644;23.336;2023-12-29T01:52:14;94820.44;;;5.83;68.72
1472;BME280;963;42.644;23.336;2023-12-29T01:54:40;94812.31;;;5.76;69.62
1472;BME280;963;42.644;23.336;2023-12-29T01:57:08;94809.84;;;5.71;69.84
1472;BME280;963;42.644;23.336;2023-12-29T01:59:34;94806.63;;;5.74;69.73
1472;BME280;963;42.644;23.336;2023-12-29T02:02:01;94811.84;;;5.74;69.74
1472;BME280;963;42.644;23.336;2023-12-29T02:04:27;94800.63;;;5.74;70.33
1472;BME280;963;42.644;23.336;2023-12-29T02:06:53;94816.59;;;5.81;69.99
1472;BME280;963;42.644;23.336;2023-12-29T02:09:19;94804.94;;;5.78;69.82
1472;BME280;963;42.644;23.336;2023-12-29T02:11:45;94795.44;;;5.65;70.20
1472;BME280;963;42.644;23.336;2023-12-29T02:14:11;94808.47;;;5.30;70.92
1472;BME280;963;42.644;23.336;2023-12-29T02:19:28;94785.84;;;4.74;74.99
1472;BME280;963;42.644;23.336;2023-12-29T02:21:59;94776.63;;;4.68;76.42
1472;BME280;963;42.644;23.336;2023-12-29T02:24:25;94779.59;;;4.84;75.64
1472;BME280;963;42.644;23.336;2023-12-29T02:26:57;94780.38;;;5.19;73.60
1472;BME280;963;42.644;23.336;2023-12-29T02:29:30;94767.22;;;5.32;72.20
1472;BME280;963;42.644;23.336;2023-12-29T02:31:58;94763.38;;;5.30;71.55
1472;BME280;963;42.644;23.336;2023-12-29T02:34:24;94756.78;;;5.41;70.93
1472;BME280;963;42.644;23.336;2023-12-29T02:36:51;94764.59;;;5.50;70.91
1472;BME280;963;42.644;23.336;2023-12-29T02:39:17;94763.50;;;5.51;70.90
1472;BME280;963;42.644;23.336;2023-12-29T02:41:42;94769.03;;;5.49;70.82
1472;BME280;963;42.644;23.336;2023-12-29T02:44:08;94743.13;;;5.36;71.08
1472;BME280;963;42.644;23.336;2023-12-29T02:46:33;94744.03;;;5.40;70.33
1472;BME280;963;42.644;23.336;2023-12-29T02:48:59;94740.50;;;5.44;71.04
1472;BME280;963;42.644;23.336;2023-12-29T02:51:24;94738.50;;;5.50;70.89
1472;BME280;963;42.644;23.336;2023-12-29T02:53:50;94732.22;;;5.59;71.45
1472;BME280;963;42.644;23.336;2023-12-29T02:56:15;94727.44;;;5.61;69.72
1472;BME280;963;42.644;23.336;2023-12-29T02:58:41;94728.66;;;5.64;69.34
1472;BME280;963;42.644;23.336;2023-12-29T03:01:06;94709.34;;;5.48;70.21
1472;BME280;963;42.644;23.336;2023-12-29T03:03:31;94734.34;;;5.57;69.96
1472;BME280;963;42.644;23.336;2023-12-29T03:05:57;94724.84;;;5.44;69.82
1472;BME280;963;42.644;23.336;2023-12-29T03:08:22;94747.88;;;5.42;69.86
1472;BME280;963;42.644;23.336;2023-12-29T03:10:48;94727.75;;;5.43;70.41
1472;BME280;963;42.644;23.336;2023-12-29T03:13:13;94719.19;;;5.33;70.91
1472;BME280;963;42.644;23.336;2023-12-29T03:15:38;94725.47;;;5.32;70.16
1472;BME280;963;42.644;23.336;2023-12-29T03:18:04;94719.34;;;5.28;70.00
1472;BME280;963;42.644;23.336;2023-12-29T03:20:30;94707.22;;;5.15;70.13
1472;BME280;963;42.644;23.336;2023-12-29T03:22:55;94706.16;;;5.16;69.67
1472;BME280;963;42.644;23.336;2023-12-29T03:25:21;94720.72;;;5.17;69.76
1472;BME280;963;42.644;23.336;2023-12-29T03:27:46;94709.84;;;4.98;70.35
1472;BME280;963;42.644;23.336;2023-12-29T03:30:12;94712.44;;;4.98;70.47
1472;BME280;963;42.644;23.336;2023-12-29T03:32:37;94713.38;;;4.85;70.84
1472;BME280;963;42.644;23.336;2023-12-29T03:35:03;94722.25;;;4.84;70.59
1472;BME280;963;42.644;23.336;2023-12-29T03:37:29;94727.94;;;4.86;70.37
1472;BME280;963;42.644;23.336;2023-12-29T03:39:54;94706.91;;;4.82;70.51
1472;BME280;963;42.644;23.336;2023-12-29T03:42:20;94720.56;;;4.88;70.85
1472;BME280;963;42.644;23.336;2023-12-29T03:44:45;94701.22;;;4.71;70.69
1472;BME280;963;42.644;23.336;2023-12-29T03:47:10;94726.22;;;4.72;71.42
1472;BME280;963;42.644;23.336;2023-12-29T03:49:36;94723.28;;;4.65;72.35
1472;BME280;963;42.644;23.336;2023-12-29T03:52:01;94730.34;;;4.65;72.89
1472;BME280;963;42.644;23.336;2023-12-29T03:54:27;94737.72;;;4.71;72.09
1472;BME280;963;42.644;23.336;2023-12-29T03:56:52;94754.41;;;4.70;71.47
1472;BME280;963;42.644;23.336;2023-12-29T03:59:17;94735.72;;;4.68;71.94
1472;BME280;963;42.644;23.336;2023-12-29T04:01:43;94737.41;;;4.73;71.66
1472;BME280;963;42.644;23.336;2023-12-29T04:04:09;94744.75;;;4.71;71.74
1472;BME280;963;42.644;23.336;2023-12-29T04:06:34;94758.09;;;4.78;71.49
1472;BME280;963;42.644;23.336;2023-12-29T04:08:59;94741.09;;;4.81;71.68
1472;BME280;963;42.644;23.336;2023-12-29T04:11:25;94749.66;;;4.81;72.14
1472;BME280;963;42.644;23.336;2023-12-29T04:13:51;94743.13;;;4.84;71.62
1472;BME280;963;42.644;23.336;2023-12-29T04:16:16;94737.56;;;4.77;71.64
1472;BME280;963;42.644;23.336;2023-12-29T04:18:43;94737.53;;;4.68;71.89
1472;BME280;963;42.644;23.336;2023-12-29T04:21:13;94738.63;;;4.67;72.82
1472;BME280;963;42.644;23.336;2023-12-29T04:23:38;94739.09;;;4.69;71.92
1472;BME280;963;42.644;23.336;2023-12-29T04:26:04;94735.88;;;4.72;73.11
1472;BME280;963;42.644;23.336;2023-12-29T04:28:29;94726.50;;;4.62;72.49
1472;BME280;963;42.644;23.336;2023-12-29T04:30:55;94766.03;;;4.64;73.29
1472;BME280;963;42.644;23.336;2023-12-29T04:33:20;94734.63;;;4.61;73.30
1472;BME280;963;42.644;23.336;2023-12-29T04:35:45;94735.94;;;4.41;73.38
1472;BME280;963;42.644;23.336;2023-12-29T04:38:11;94722.47;;;4.39;74.18
1472;BME280;963;42.644;23.336;2023-12-29T04:40:36;94727.88;;;4.51;74.65
1472;BME280;963;42.644;23.336;2023-12-29T04:43:02;94726.50;;;4.62;74.75
1472;BME280;963;42.644;23.336;2023-12-29T04:45:28;94715.78;;;4.64;75.40
1472;BME280;963;42.644;23.336;2023-12-29T04:47:54;94728.06;;;4.81;73.89
1472;BME280;963;42.644;23.336;2023-12-29T04:50:19;94735.13;;;4.89;73.25
1472;BME280;963;42.644;23.336;2023-12-29T04:52:44;94732.03;;;4.69;73.13
1472;BME280;963;42.644;23.336;2023-12-29T04:55:10;94742.97;;;4.97;72.90
1472;BME280;963;42.644;23.336;2023-12-29T04:57:36;94726.09;;;5.03;73.58
1472;BME280;963;42.644;23.336;2023-12-29T05:00:02;94728.84;;;5.07;73.31
1472;BME280;963;42.644;23.336;2023-12-29T05:02:27;94718.59;;;5.02;72.12
1472;BME280;963;42.644;23.336;2023-12-29T05:04:53;94734.22;;;4.93;73.39
1472;BME280;963;42.644;23.336;2023-12-29T05:07:18;94716.13;;;4.97;72.90
1472;BME280;963;42.644;23.336;2023-12-29T05:09:44;94718.28;;;4.95;73.56
1472;BME280;963;42.644;23.336;2023-12-29T05:12:09;94712.44;;;4.98;74.54
1472;BME280;963;42.644;23.336;2023-12-29T05:14:35;94707.84;;;4.95;73.56
1472;BME280;963;42.644;23.336;2023-12-29T05:17:00;94701.88;;;4.94;73.44
1472;BME280;963;42.644;23.336;2023-12-29T05:19:25;94701.41;;;5.01;72.80
1472;BME280;963;42.644;23.336;2023-12-29T05:21:51;94689.59;;;4.95;72.18
1472;BME280;963;42.644;23.336;2023-12-29T05:24:17;94684.56;;;4.90;71.38
1472;BME280;963;42.644;23.336;2023-12-29T05:26:42;94697.44;;;4.95;71.18
1472;BME280;963;42.644;23.336;2023-12-29T05:29:08;94703.88;;;4.89;71.05
1472;BME280;963;42.644;23.336;2023-12-29T05:31:33;94723.78;;;4.85;71.33
1472;BME280;963;42.644;23.336;2023-12-29T05:33:58;94724.97;;;4.70;71.09
1472;BME280;963;42.644;23.336;2023-12-29T05:36:24;94718.53;;;4.67;71.24
1472;BME280;963;42.644;23.336;2023-12-29T05:38:49;94721.75;;;4.64;71.38
1472;BME280;963;42.644;23.336;2023-12-29T05:41:15;94721.75;;;4.64;71.33
1472;BME280;963;42.644;23.336;2023-12-29T05:43:41;94731.56;;;4.59;71.39
1472;BME280;963;42.644;23.336;2023-12-29T05:46:12;94762.81;;;4.50;71.83
1472;BME280;963;42.644;23.336;2023-12-29T05:48:38;94745.28;;;4.42;72.01
1472;BME280;963;42.644;23.336;2023-12-29T05:51:12;94716.16;;;4.31;72.43
1472;BME280;963;42.644;23.336;2023-12-29T05:53:41;94731.94;;;4.35;72.26
1472;BME280;963;42.644;23.336;2023-12-29T05:56:06;94747.19;;;4.11;73.28
1472;BME280;963;42.644;23.336;2023-12-29T05:58:32;94730.03;;;4.10;73.71
1472;BME280;963;42.644;23.336;2023-12-29T06:00:57;94720.94;;;3.67;76.03
1472;BME280;963;42.644;23.336;2023-12-29T06:03:24;94721.41;;;4.00;75.19
1472;BME280;963;42.644;23.336;2023-12-29T06:05:50;94717.13;;;4.04;74.71
1472;BME280;963;42.644;23.336;2023-12-29T06:08:15;94709.78;;;4.06;74.45
1472;BME280;963;42.644;23.336;2023-12-29T06:10:41;94710.56;;;4.07;74.24
1472;BME280;963;42.644;23.336;2023-12-29T06:13:06;94708.34;;;4.23;73.64
1472;BME280;963;42.644;23.336;2023-12-29T06:15:32;94696.72;;;4.29;73.09
1472;BME280;963;42.644;23.336;2023-12-29T06:17:57;94695.97;;;4.37;73.21
1472;BME280;963;42.644;23.336;2023-12-29T06:20:23;94719.41;;;4.37;73.52
1472;BME280;963;42.644;23.336;2023-12-29T06:22:49;94726.94;;;4.47;72.03
1472;BME280;963;42.644;23.336;2023-12-29T06:25:14;94707.75;;;4.43;72.31
1472;BME280;963;42.644;23.336;2023-12-29T06:27:40;94704.09;;;4.44;72.10
1472;BME280;963;42.644;23.336;2023-12-29T06:30:07;94723.72;;;4.50;72.25
1472;BME280;963;42.644;23.336;2023-12-29T06:32:33;94729.09;;;4.54;72.15
1472;BME280;963;42.644;23.336;2023-12-29T06:34:58;94729.25;;;4.57;71.98
1472;BME280;963;42.644;23.336;2023-12-29T06:37:24;94712.25;;;4.51;71.30
1472;BME280;963;42.644;23.336;2023-12-29T06:39:49;94715.47;;;4.48;71.25
1472;BME280;963;42.644;23.336;2023-12-29T06:42:15;94711.59;;;4.46;71.66
1472;BME280;963;42.644;23.336;2023-12-29T06:44:40;94741.66;;;4.52;71.52
1472;BME280;963;42.644;23.336;2023-12-29T06:47:06;94727.41;;;4.49;71.70
1472;BME280;963;42.644;23.336;2023-12-29T06:49:34;94714.53;;;4.53;71.53
1472;BME280;963;42.644;23.336;2023-12-29T06:51:59;94711.94;;;4.53;71.00
1472;BME280;963;42.644;23.336;2023-12-29T06:54:25;94707.50;;;4.53;70.97
1472;BME280;963;42.644;23.336;2023-12-29T06:56:50;94720.38;;;4.67;71.04
1472;BME280;963;42.644;23.336;2023-12-29T06:59:16;94723.75;;;4.67;70.84
1472;BME280;963;42.644;23.336;2023-12-29T07:01:43;94725.75;;;4.70;70.74
1472;BME280;963;42.644;23.336;2023-12-29T07:04:09;94731.41;;;4.72;70.47
1472;BME280;963;42.644;23.336;2023-12-29T07:06:38;94735.56;;;4.74;70.68
1472;BME280;963;42.644;23.336;2023-12-29T07:09:04;94751.97;;;4.83;70.19
1472;BME280;963;42.644;23.336;2023-12-29T07:11:29;94752.47;;;4.85;69.71
1472;BME280;963;42.644;23.336;2023-12-29T07:13:55;94736.84;;;4.93;69.96
1472;BME280;963;42.644;23.336;2023-12-29T07:16:20;94724.56;;;4.94;70.38
1472;BME280;963;42.644;23.336;2023-12-29T07:18:46;94715.22;;;4.93;69.98
1472;BME280;963;42.644;23.336;2023-12-29T07:21:12;94717.06;;;4.92;69.77
1472;BME280;963;42.644;23.336;2023-12-29T07:23:38;94710.75;;;5.11;70.06
1472;BME280;963;42.644;23.336;2023-12-29T07:26:04;94712.91;;;5.17;69.44
1472;BME280;963;42.644;23.336;2023-12-29T07:28:31;94704.63;;;5.24;69.71
1472;BME280;963;42.644;23.336;2023-12-29T07:30:57;94704.16;;;5.30;69.32
1472;BME280;963;42.644;23.336;2023-12-29T07:33:22;94706.28;;;5.46;69.21
1472;BME280;963;42.644;23.336;2023-12-29T07:35:49;94699.06;;;5.51;68.83
1472;BME280;963;42.644;23.336;2023-12-29T07:38:14;94717.16;;;5.65;69.00
1472;BME280;963;42.644;23.336;2023-12-29T07:40:40;94709.63;;;5.72;68.28
1472;BME280;963;42.644;23.336;2023-12-29T07:43:05;94708.38;;;5.78;68.06
1472;BME280;963;42.644;23.336;2023-12-29T07:45:31;94703.75;;;5.84;67.91
1472;BME280;963;42.644;23.336;2023-12-29T07:47:56;94711.44;;;5.80;68.03
1472;BME280;963;42.644;23.336;2023-12-29T07:50:22;94730.97;;;5.65;68.55
1472;BME280;963;42.644;23.336;2023-12-29T07:52:48;94706.22;;;5.80;68.48
1472;BME280;963;42.644;23.336;2023-12-29T07:55:13;94711.25;;;5.85;68.80
1472;BME280;963;42.644;23.336;2023-12-29T07:57:42;94717.25;;;5.94;68.38
1472;BME280;963;42.644;23.336;2023-12-29T08:00:08;94716.88;;;6.13;67.88
1472;BME280;963;42.644;23.336;2023-12-29T08:02:34;94724.19;;;6.28;67.78
1472;BME280;963;42.644;23.336;2023-12-29T08:04:59;94702.38;;;6.33;67.40
1472;BME280;963;42.644;23.336;2023-12-29T08:07:25;94720.38;;;6.55;66.53
1472;BME280;963;42.644;23.336;2023-12-29T08:09:50;94728.28;;;6.68;66.33
1472;BME280;963;42.644;23.336;2023-12-29T08:12:15;94733.16;;;6.78;66.24
1472;BME280;963;42.644;23.336;2023-12-29T08:14:41;94714.53;;;6.79;65.87
1472;BME280;963;42.644;23.336;2023-12-29T08:17:06;94704.59;;;6.73;66.64
1472;BME280;963;42.644;23.336;2023-12-29T08:19:32;94688.44;;;6.50;67.47
1472;BME280;963;42.644;23.336;2023-12-29T08:21:57;94702.56;;;6.99;66.25
1472;BME280;963;42.644;23.336;2023-12-29T08:24:23;94702.44;;;7.16;66.19
1472;BME280;963;42.644;23.336;2023-12-29T08:26:48;94706.28;;;7.31;65.46
1472;BME280;963;42.644;23.336;2023-12-29T08:29:14;94704.75;;;7.51;64.71
1472;BME280;963;42.644;23.336;2023-12-29T08:31:40;94711.75;;;7.59;64.80
1472;BME280;963;42.644;23.336;2023-12-29T08:34:06;94734.47;;;7.67;64.01
1472;BME280;963;42.644;23.336;2023-12-29T08:36:32;94712.06;;;7.91;63.29
1472;BME280;963;42.644;23.336;2023-12-29T08:38:57;94715.44;;;7.46;64.57
1472;BME280;963;42.644;23.336;2023-12-29T08:41:23;94710.94;;;7.46;64.74
1472;BME280;963;42.644;23.336;2023-12-29T08:43:48;94700.75;;;7.78;63.50
1472;BME280;963;42.644;23.336;2023-12-29T08:46:13;94714.47;;;8.08;62.83
1472;BME280;963;42.644;23.336;2023-12-29T08:48:39;94695.25;;;8.16;61.97
1472;BME280;963;42.644;23.336;2023-12-29T08:51:04;94726.97;;;8.48;61.58
1472;BME280;963;42.644;23.336;2023-12-29T08:53:30;94725.31;;;8.31;61.61
1472;BME280;963;42.644;23.336;2023-12-29T08:55:59;94715.47;;;7.70;62.70
1472;BME280;963;42.644;23.336;2023-12-29T08:58:24;94707.78;;;7.86;62.38
1472;BME280;963;42.644;23.336;2023-12-29T09:00:50;94727.25;;;7.64;63.32
1472;BME280;963;42.644;23.336;2023-12-29T09:03:15;94733.66;;;8.00;62.33
1472;BME280;963;42.644;23.336;2023-12-29T09:05:40;94724.97;;;8.32;61.69
1472;BME280;963;42.644;23.336;2023-12-29T09:08:06;94727.84;;;8.52;61.20
1472;BME280;963;42.644;23.336;2023-12-29T09:10:31;94722.34;;;8.81;60.94
1472;BME280;963;42.644;23.336;2023-12-29T09:12:57;94727.34;;;9.11;59.94
1472;BME280;963;42.644;23.336;2023-12-29T09:15:22;94719.91;;;9.13;59.88
1472;BME280;963;42.644;23.336;2023-12-29T09:17:48;94708.47;;;9.33;59.05
1472;BME280;963;42.644;23.336;2023-12-29T09:20:13;94710.16;;;9.13;60.13
1472;BME280;963;42.644;23.336;2023-12-29T09:22:40;94705.09;;;9.32;59.63
1472;BME280;963;42.644;23.336;2023-12-29T09:25:05;94701.63;;;9.44;59.58
1472;BME280;963;42.644;23.336;2023-12-29T09:27:31;94696.84;;;9.62;59.12
1472;BME280;963;42.644;23.336;2023-12-29T09:29:56;94695.28;;;9.45;59.72
1472;BME280;963;42.644;23.336;2023-12-29T09:32:22;94686.41;;;9.22;60.32
1472;BME280;963;42.644;23.336;2023-12-29T09:34:47;94689.94;;;9.69;59.69
1472;BME280;963;42.644;23.336;2023-12-29T09:37:12;94681.81;;;10.06;58.96
1472;BME280;963;42.644;23.336;2023-12-29T09:39:38;94664.38;;;10.29;58.81
1472;BME280;963;42.644;23.336;2023-12-29T09:42:03;94660.72;;;10.69;57.50
1472;BME280;963;42.644;23.336;2023-12-29T09:44:31;94664.94;;;10.89;57.28
1472;BME280;963;42.644;23.336;2023-12-29T09:47:02;94663.53;;;11.15;57.30
1472;BME280;963;42.644;23.336;2023-12-29T09:49:34;94657.84;;;11.51;56.17
1472;BME280;963;42.644;23.336;2023-12-29T09:52:02;94661.47;;;10.85;57.98
1472;BME280;963;42.644;23.336;2023-12-29T09:54:28;94646.38;;;11.21;56.76
1472;BME280;963;42.644;23.336;2023-12-29T09:56:54;94654.66;;;11.62;56.32
1472;BME280;963;42.644;23.336;2023-12-29T09:59:21;94654.16;;;11.98;55.38
1472;BME280;963;42.644;23.336;2023-12-29T10:01:48;94649.09;;;12.35;54.31
1472;BME280;963;42.644;23.336;2023-12-29T10:04:13;94652.19;;;12.67;53.68
1472;BME280;963;42.644;23.336;2023-12-29T10:06:44;94636.09;;;13.06;52.42
1472;BME280;963;42.644;23.336;2023-12-29T10:09:12;94600.50;;;13.26;51.44
1472;BME280;963;42.644;23.336;2023-12-29T10:11:40;94630.81;;;13.76;50.36
1472;BME280;963;42.644;23.336;2023-12-29T10:14:51;94613.66;;;14.04;49.79
1472;BME280;963;42.644;23.336;2023-12-29T10:23:17;94614.66;;;15.02;47.13
1472;BME280;963;42.644;23.336;2023-12-29T10:25:44;94607.78;;;14.87;47.01
1472;BME280;963;42.644;23.336;2023-12-29T10:28:10;94596.66;;;14.56;47.77
1472;BME280;963;42.644;23.336;2023-12-29T10:30:35;94590.25;;;14.61;47.05
1472;BME280;963;42.644;23.336;2023-12-29T10:33:01;94579.34;;;14.77;46.91
1472;BME280;963;42.644;23.336;2023-12-29T10:35:29;94568.06;;;14.90;46.26
1472;BME280;963;42.644;23.336;2023-12-29T10:38:08;94583.53;;;14.85;46.25
1472;BME280;963;42.644;23.336;2023-12-29T10:40:34;94577.22;;;15.14;46.16
1472;BME280;963;42.644;23.336;2023-12-29T10:43:00;94563.66;;;15.37;45.28
1472;BME280;963;42.644;23.336;2023-12-29T10:45:31;94550.41;;;15.26;44.78
1472;BME280;963;42.644;23.336;2023-12-29T10:47:59;94558.25;;;14.91;46.29
1472;BME280;963;42.644;23.336;2023-12-29T10:50:25;94556.09;;;15.36;45.63
1472;BME280;963;42.644;23.336;2023-12-29T10:52:50;94575.09;;;15.66;45.11
1472;BME280;963;42.644;23.336;2023-12-29T10:55:15;94547.78;;;16.22;44.10
1472;BME280;963;42.644;23.336;2023-12-29T10:57:41;94526.84;;;16.56;43.40
1472;BME280;963;42.644;23.336;2023-12-29T11:00:08;94541.66;;;16.50;43.35
1472;BME280;963;42.644;23.336;2023-12-29T11:02:36;94538.22;;;16.57;43.00
1472;BME280;963;42.644;23.336;2023-12-29T11:05:06;94533.44;;;15.67;44.63
1472;BME280;963;42.644;23.336;2023-12-29T11:07:40;94531.13;;;15.97;43.92
1472;BME280;963;42.644;23.336;2023-12-29T11:10:07;94521.28;;;15.76;44.36
1472;BME280;963;42.644;23.336;2023-12-29T11:12:36;94522.06;;;15.73;44.88
1472;BME280;963;42.644;23.336;2023-12-29T11:15:04;94517.44;;;16.27;43.88
1472;BME280;963;42.644;23.336;2023-12-29T11:17:31;94504.81;;;16.63;42.85
1472;BME280;963;42.644;23.336;2023-12-29T11:19:59;94516.47;;;16.94;42.23
1472;BME280;963;42.644;23.336;2023-12-29T11:22:28;94521.84;;;16.80;42.81
1472;BME280;963;42.644;23.336;2023-12-29T11:24:54;94501.19;;;17.12;42.03
1472;BME280;963;42.644;23.336;2023-12-29T11:27:20;94504.84;;;17.33;41.29
1472;BME280;963;42.644;23.336;2023-12-29T11:29:47;94494.50;;;17.49;41.34
1472;BME280;963;42.644;23.336;2023-12-29T11:32:20;94489.38;;;17.72;40.84
1472;BME280;963;42.644;23.336;2023-12-29T11:34:52;94500.53;;;18.01;40.62
1472;BME280;963;42.644;23.336;2023-12-29T11:43:15;94492.84;;;17.69;41.29
1472;BME280;963;42.644;23.336;2023-12-29T11:45:42;94495.28;;;17.94;41.03
1472;BME280;963;42.644;23.336;2023-12-29T11:48:07;94489.34;;;18.17;40.77
1472;BME280;963;42.644;23.336;2023-12-29T11:50:35;94484.88;;;18.44;40.02
1472;BME280;963;42.644;23.336;2023-12-29T11:53:02;94460.81;;;18.52;39.25
1472;BME280;963;42.644;23.336;2023-12-29T11:55:33;94482.50;;;18.54;39.33
1472;BME280;963;42.644;23.336;2023-12-29T11:58:00;94490.25;;;18.41;39.49
1472;BME280;963;42.644;23.336;2023-12-29T12:00:55;94482.66;;;18.39;39.14
1472;BME280;963;42.644;23.336;2023-12-29T12:03:30;94481.19;;;18.35;39.15
1472;BME280;963;42.644;23.336;2023-12-29T12:05:59;94480.13;;;18.29;40.05
1472;BME280;963;42.644;23.336;2023-12-29T12:08:28;94493.09;;;18.61;39.16
1472;BME280;963;42.644;23.336;2023-12-29T12:10:55;94476.84;;;18.82;38.90
1472;BME280;963;42.644;23.336;2023-12-29T12:13:43;94470.44;;;19.07;38.32
1472;BME280;963;42.644;23.336;2023-12-29T12:16:09;94466.44;;;18.91;37.84
1472;BME280;963;42.644;23.336;2023-12-29T12:18:35;94465.25;;;19.23;37.66
1472;BME280;963;42.644;23.336;2023-12-29T12:21:03;94477.00;;;19.52;37.47
1472;BME280;963;42.644;23.336;2023-12-29T12:23:32;94470.06;;;19.82;37.07
1472;BME280;963;42.644;23.336;2023-12-29T12:26:00;94465.06;;;20.07;36.16
1472;BME280;963;42.644;23.336;2023-12-29T12:28:26;94461.84;;;19.73;36.32
1472;BME280;963;42.644;23.336;2023-12-29T12:30:52;94473.09;;;19.84;36.41
1472;BME280;963;42.644;23.336;2023-12-29T12:33:19;94473.44;;;20.09;35.70
1472;BME280;963;42.644;23.336;2023-12-29T12:35:44;94477.16;;;19.92;35.69
1472;BME280;963;42.644;23.336;2023-12-29T12:38:16;94477.59;;;20.10;35.71
1472;BME280;963;42.644;23.336;2023-12-29T12:40:47;94472.94;;;20.34;35.71
1472;BME280;963;42.644;23.336;2023-12-29T12:43:16;94471.84;;;20.55;34.85
1472;BME280;963;42.644;23.336;2023-12-29T12:48:22;94480.31;;;20.89;34.91
1472;BME280;963;42.644;23.336;2023-12-29T12:50:49;94471.50;;;20.53;35.31
1472;BME280;963;42.644;23.336;2023-12-29T12:53:14;94461.03;;;20.78;34.97
1472;BME280;963;42.644;23.336;2023-12-29T12:55:47;94463.03;;;21.10;34.18
1472;BME280;963;42.644;23.336;2023-12-29T12:58:15;94472.47;;;21.35;33.41
1472;BME280;963;42.644;23.336;2023-12-29T13:00:41;94470.41;;;21.59;33.48
1472;BME280;963;42.644;23.336;2023-12-29T13:03:07;94470.38;;;22.07;32.82
1472;BME280;963;42.644;23.336;2023-12-29T13:05:33;94462.06;;;23.01;31.66
1472;BME280;963;42.644;23.336;2023-12-29T13:07:58;94471.81;;;23.84;30.70
1472;BME280;963;42.644;23.336;2023-12-29T13:10:24;94482.06;;;25.20;29.31
1472;BME280;963;42.644;23.336;2023-12-29T13:12:53;94455.41;;;26.48;28.08
1472;BME280;963;42.644;23.336;2023-12-29T13:15:20;94457.50;;;27.56;26.31
1472;BME280;963;42.644;23.336;2023-12-29T13:17:54;94464.78;;;27.98;26.09
1472;BME280;963;42.644;23.336;2023-12-29T13:20:20;94456.84;;;29.66;25.55
1472;BME280;963;42.644;23.336;2023-12-29T13:22:52;94459.88;;;30.08;24.51
1472;BME280;963;42.644;23.336;2023-12-29T13:25:20;94449.03;;;31.06;24.10
1472;BME280;963;42.644;23.336;2023-12-29T13:27:48;94447.00;;;32.13;22.90
1472;BME280;963;42.644;23.336;2023-12-29T13:30:13;94439.97;;;32.54;22.63
1472;BME280;963;42.644;23.336;2023-12-29T13:32:40;94451.44;;;32.86;22.53
1472;BME280;963;42.644;23.336;2023-12-29T13:37:59;94455.16;;;33.00;21.96
1472;BME280;963;42.644;23.336;2023-12-29T13:40:34;94455.56;;;32.48;21.97
1472;BME280;963;42.644;23.336;2023-12-29T13:43:02;94470.97;;;32.03;22.07
1472;BME280;963;42.644;23.336;2023-12-29T13:45:29;94467.69;;;29.16;24.01